Terminal Aerodrome Forecast
Issued by NWS

Home | Current Version | Previous Version | Graphics & Text | Print | Product List | Glossary On
Versions: 1 2 3 4 5 6 7 8 9 10 11 12 13 14 15 16 17 18 19
000
FTUS43 KGRB 192343
TAFAUW
TAF
KAUW 192343Z 2000/2024 26007KT P6SM FEW250
     FM200700 21003KT 5SM BR FEW150
     FM201000 VRB03KT 4SM BR SCT120
     FM201300 21006KT P6SM SCT200
     FM201800 20010KT P6SM SCT040 BKN120=

USA.gov is the U.S. government's official web portal to all federal, state and local government web resources and services.